sensor_id;sensor_type;location;lat;lon;timestamp;P1;durP1;ratioP1;P2;durP2;ratioP2
44328;SDS011;30039;51.462;6.892;2023-11-21T00:02:33;11.90;;;5.85;;
44328;SDS011;30039;51.462;6.892;2023-11-21T00:05:19;10.10;;;6.30;;
44328;SDS011;30039;51.462;6.892;2023-11-21T00:08:05;9.98;;;5.07;;
44328;SDS011;30039;51.462;6.892;2023-11-21T00:10:50;8.90;;;4.95;;
44328;SDS011;30039;51.462;6.892;2023-11-21T00:13:36;14.50;;;5.95;;
44328;SDS011;30039;51.462;6.892;2023-11-21T00:16:23;9.88;;;5.40;;
44328;SDS011;30039;51.462;6.892;2023-11-21T00:19:11;7.85;;;5.18;;
44328;SDS011;30039;51.462;6.892;2023-11-21T00:21:57;10.35;;;5.50;;
44328;SDS011;30039;51.462;6.892;2023-11-21T00:24:43;10.23;;;5.78;;
44328;SDS011;30039;51.462;6.892;2023-11-21T00:27:29;10.82;;;5.85;;
44328;SDS011;30039;51.462;6.892;2023-11-21T00:30:15;10.95;;;5.78;;
44328;SDS011;30039;51.462;6.892;2023-11-21T00:33:00;8.65;;;5.65;;
44328;SDS011;30039;51.462;6.892;2023-11-21T00:35:46;8.48;;;5.55;;
44328;SDS011;30039;51.462;6.892;2023-11-21T00:38:32;14.45;;;5.90;;
44328;SDS011;30039;51.462;6.892;2023-11-21T00:41:17;13.40;;;5.60;;
44328;SDS011;30039;51.462;6.892;2023-11-21T00:44:03;14.48;;;5.55;;
44328;SDS011;30039;51.462;6.892;2023-11-21T00:46:49;14.73;;;5.65;;
44328;SDS011;30039;51.462;6.892;2023-11-21T00:49:35;12.50;;;5.80;;
44328;SDS011;30039;51.462;6.892;2023-11-21T00:52:21;8.27;;;5.28;;
44328;SDS011;30039;51.462;6.892;2023-11-21T00:55:07;14.13;;;6.78;;
44328;SDS011;30039;51.462;6.892;2023-11-21T00:57:53;9.50;;;6.10;;
44328;SDS011;30039;51.462;6.892;2023-11-21T01:00:38;11.10;;;6.10;;
44328;SDS011;30039;51.462;6.892;2023-11-21T01:03:27;11.40;;;5.57;;
44328;SDS011;30039;51.462;6.892;2023-11-21T01:06:13;13.35;;;6.22;;
44328;SDS011;30039;51.462;6.892;2023-11-21T01:08:58;12.70;;;6.30;;
44328;SDS011;30039;51.462;6.892;2023-11-21T01:11:44;12.93;;;5.75;;
44328;SDS011;30039;51.462;6.892;2023-11-21T01:14:29;11.50;;;5.75;;
44328;SDS011;30039;51.462;6.892;2023-11-21T01:17:15;11.75;;;6.07;;
44328;SDS011;30039;51.462;6.892;2023-11-21T01:20:02;10.73;;;6.05;;
44328;SDS011;30039;51.462;6.892;2023-11-21T01:22:48;14.40;;;6.05;;
44328;SDS011;30039;51.462;6.892;2023-11-21T01:25:39;13.48;;;6.20;;
44328;SDS011;30039;51.462;6.892;2023-11-21T01:28:24;18.50;;;6.05;;
44328;SDS011;30039;51.462;6.892;2023-11-21T01:31:10;12.77;;;5.75;;
44328;SDS011;30039;51.462;6.892;2023-11-21T01:33:56;10.15;;;6.05;;
44328;SDS011;30039;51.462;6.892;2023-11-21T01:36:41;10.52;;;5.47;;
44328;SDS011;30039;51.462;6.892;2023-11-21T01:39:27;11.65;;;6.47;;
44328;SDS011;30039;51.462;6.892;2023-11-21T01:42:13;16.02;;;5.82;;
44328;SDS011;30039;51.462;6.892;2023-11-21T01:44:58;13.55;;;5.90;;
44328;SDS011;30039;51.462;6.892;2023-11-21T01:47:44;17.05;;;5.82;;
44328;SDS011;30039;51.462;6.892;2023-11-21T01:50:30;10.60;;;5.72;;
44328;SDS011;30039;51.462;6.892;2023-11-21T01:53:16;9.93;;;5.57;;
44328;SDS011;30039;51.462;6.892;2023-11-21T01:56:02;14.32;;;5.78;;
44328;SDS011;30039;51.462;6.892;2023-11-21T01:58:49;12.02;;;5.63;;
44328;SDS011;30039;51.462;6.892;2023-11-21T02:01:34;11.80;;;5.97;;
44328;SDS011;30039;51.462;6.892;2023-11-21T02:04:20;16.60;;;6.22;;
44328;SDS011;30039;51.462;6.892;2023-11-21T02:07:06;12.80;;;5.85;;
44328;SDS011;30039;51.462;6.892;2023-11-21T02:09:52;15.30;;;6.65;;
44328;SDS011;30039;51.462;6.892;2023-11-21T02:12:37;18.83;;;5.90;;
44328;SDS011;30039;51.462;6.892;2023-11-21T02:15:24;11.63;;;6.05;;
44328;SDS011;30039;51.462;6.892;2023-11-21T02:18:13;14.40;;;6.45;;
44328;SDS011;30039;51.462;6.892;2023-11-21T02:21:00;11.70;;;6.00;;
44328;SDS011;30039;51.462;6.892;2023-11-21T02:23:48;11.60;;;6.38;;
44328;SDS011;30039;51.462;6.892;2023-11-21T02:26:33;11.68;;;6.85;;
44328;SDS011;30039;51.462;6.892;2023-11-21T02:29:20;9.73;;;5.90;;
44328;SDS011;30039;51.462;6.892;2023-11-21T02:32:13;9.73;;;5.57;;
44328;SDS011;30039;51.462;6.892;2023-11-21T02:34:58;15.90;;;6.55;;
44328;SDS011;30039;51.462;6.892;2023-11-21T02:37:48;13.50;;;7.03;;
44328;SDS011;30039;51.462;6.892;2023-11-21T02:40:34;15.60;;;7.40;;
44328;SDS011;30039;51.462;6.892;2023-11-21T02:43:19;14.93;;;6.88;;
44328;SDS011;30039;51.462;6.892;2023-11-21T02:46:05;15.02;;;7.28;;
44328;SDS011;30039;51.462;6.892;2023-11-21T02:48:51;13.02;;;7.15;;
44328;SDS011;30039;51.462;6.892;2023-11-21T02:51:38;15.95;;;7.07;;
44328;SDS011;30039;51.462;6.892;2023-11-21T02:54:24;15.25;;;7.35;;
44328;SDS011;30039;51.462;6.892;2023-11-21T02:57:10;12.98;;;6.75;;
44328;SDS011;30039;51.462;6.892;2023-11-21T02:59:56;13.15;;;6.85;;
44328;SDS011;30039;51.462;6.892;2023-11-21T03:02:41;15.18;;;7.25;;
44328;SDS011;30039;51.462;6.892;2023-11-21T03:05:27;14.38;;;6.47;;
44328;SDS011;30039;51.462;6.892;2023-11-21T03:08:14;11.80;;;6.05;;
44328;SDS011;30039;51.462;6.892;2023-11-21T03:10:59;11.93;;;6.07;;
44328;SDS011;30039;51.462;6.892;2023-11-21T03:13:45;12.23;;;6.00;;
44328;SDS011;30039;51.462;6.892;2023-11-21T03:16:34;13.43;;;6.75;;
44328;SDS011;30039;51.462;6.892;2023-11-21T03:19:20;12.07;;;6.32;;
44328;SDS011;30039;51.462;6.892;2023-11-21T03:22:06;14.73;;;6.75;;
44328;SDS011;30039;51.462;6.892;2023-11-21T03:24:51;12.32;;;6.50;;
44328;SDS011;30039;51.462;6.892;2023-11-21T03:27:38;15.95;;;6.10;;
44328;SDS011;30039;51.462;6.892;2023-11-21T03:30:24;12.57;;;6.15;;
44328;SDS011;30039;51.462;6.892;2023-11-21T03:33:10;11.63;;;6.68;;
44328;SDS011;30039;51.462;6.892;2023-11-21T03:35:55;13.57;;;6.80;;
44328;SDS011;30039;51.462;6.892;2023-11-21T03:38:41;12.07;;;6.13;;
44328;SDS011;30039;51.462;6.892;2023-11-21T03:41:27;12.52;;;6.80;;
44328;SDS011;30039;51.462;6.892;2023-11-21T03:44:13;12.98;;;6.38;;
44328;SDS011;30039;51.462;6.892;2023-11-21T03:46:59;14.38;;;6.65;;
44328;SDS011;30039;51.462;6.892;2023-11-21T03:49:45;12.18;;;6.35;;
44328;SDS011;30039;51.462;6.892;2023-11-21T03:52:31;17.77;;;9.00;;
44328;SDS011;30039;51.462;6.892;2023-11-21T03:55:16;17.85;;;7.65;;
44328;SDS011;30039;51.462;6.892;2023-11-21T03:58:02;14.73;;;6.40;;
44328;SDS011;30039;51.462;6.892;2023-11-21T04:00:48;12.18;;;6.90;;
44328;SDS011;30039;51.462;6.892;2023-11-21T04:03:36;13.85;;;7.05;;
44328;SDS011;30039;51.462;6.892;2023-11-21T04:06:22;17.67;;;7.40;;
44328;SDS011;30039;51.462;6.892;2023-11-21T04:09:07;16.63;;;7.25;;
44328;SDS011;30039;51.462;6.892;2023-11-21T04:11:53;13.15;;;6.85;;
44328;SDS011;30039;51.462;6.892;2023-11-21T04:14:39;15.90;;;6.95;;
44328;SDS011;30039;51.462;6.892;2023-11-21T04:17:24;14.70;;;7.30;;
44328;SDS011;30039;51.462;6.892;2023-11-21T04:20:10;15.40;;;7.28;;
44328;SDS011;30039;51.462;6.892;2023-11-21T04:22:55;13.25;;;7.05;;
44328;SDS011;30039;51.462;6.892;2023-11-21T04:25:41;13.90;;;6.95;;
44328;SDS011;30039;51.462;6.892;2023-11-21T04:28:27;16.13;;;7.47;;
44328;SDS011;30039;51.462;6.892;2023-11-21T04:31:13;16.25;;;7.07;;
44328;SDS011;30039;51.462;6.892;2023-11-21T04:33:58;15.82;;;6.97;;
44328;SDS011;30039;51.462;6.892;2023-11-21T04:36:44;15.38;;;7.30;;
44328;SDS011;30039;51.462;6.892;2023-11-21T04:39:29;16.48;;;7.90;;
44328;SDS011;30039;51.462;6.892;2023-11-21T04:42:15;14.18;;;7.43;;
44328;SDS011;30039;51.462;6.892;2023-11-21T04:45:01;15.25;;;7.40;;
44328;SDS011;30039;51.462;6.892;2023-11-21T04:47:46;11.48;;;7.28;;
44328;SDS011;30039;51.462;6.892;2023-11-21T04:50:32;19.63;;;7.95;;
44328;SDS011;30039;51.462;6.892;2023-11-21T04:53:18;15.90;;;8.05;;
44328;SDS011;30039;51.462;6.892;2023-11-21T04:56:04;15.52;;;7.97;;
44328;SDS011;30039;51.462;6.892;2023-11-21T04:58:50;18.50;;;8.02;;
44328;SDS011;30039;51.462;6.892;2023-11-21T05:01:36;14.80;;;7.95;;
44328;SDS011;30039;51.462;6.892;2023-11-21T05:04:22;14.75;;;7.78;;
44328;SDS011;30039;51.462;6.892;2023-11-21T05:07:07;15.20;;;7.68;;
44328;SDS011;30039;51.462;6.892;2023-11-21T05:09:53;15.82;;;7.95;;
44328;SDS011;30039;51.462;6.892;2023-11-21T05:12:39;13.80;;;7.68;;
44328;SDS011;30039;51.462;6.892;2023-11-21T05:15:25;16.48;;;8.65;;
44328;SDS011;30039;51.462;6.892;2023-11-21T05:18:10;16.25;;;8.43;;
44328;SDS011;30039;51.462;6.892;2023-11-21T05:20:56;19.35;;;7.90;;
44328;SDS011;30039;51.462;6.892;2023-11-21T05:23:42;15.95;;;8.38;;
44328;SDS011;30039;51.462;6.892;2023-11-21T05:26:28;16.23;;;7.95;;
44328;SDS011;30039;51.462;6.892;2023-11-21T05:29:14;16.25;;;7.80;;
44328;SDS011;30039;51.462;6.892;2023-11-21T05:31:59;17.63;;;8.75;;
44328;SDS011;30039;51.462;6.892;2023-11-21T05:34:45;17.23;;;8.20;;
44328;SDS011;30039;51.462;6.892;2023-11-21T05:37:30;13.88;;;8.38;;
44328;SDS011;30039;51.462;6.892;2023-11-21T05:40:16;14.95;;;8.20;;
44328;SDS011;30039;51.462;6.892;2023-11-21T05:43:02;16.95;;;8.40;;
44328;SDS011;30039;51.462;6.892;2023-11-21T05:45:47;16.98;;;8.35;;
44328;SDS011;30039;51.462;6.892;2023-11-21T05:48:33;18.70;;;8.35;;
44328;SDS011;30039;51.462;6.892;2023-11-21T05:51:19;21.08;;;9.88;;
44328;SDS011;30039;51.462;6.892;2023-11-21T05:54:04;21.02;;;9.48;;
44328;SDS011;30039;51.462;6.892;2023-11-21T05:56:50;19.58;;;9.18;;
44328;SDS011;30039;51.462;6.892;2023-11-21T05:59:36;18.70;;;9.18;;
44328;SDS011;30039;51.462;6.892;2023-11-21T06:02:21;19.98;;;9.80;;
44328;SDS011;30039;51.462;6.892;2023-11-21T06:05:07;17.65;;;9.25;;
44328;SDS011;30039;51.462;6.892;2023-11-21T06:07:54;18.55;;;9.18;;
44328;SDS011;30039;51.462;6.892;2023-11-21T06:10:41;21.48;;;9.68;;
44328;SDS011;30039;51.462;6.892;2023-11-21T06:13:26;20.52;;;9.77;;
44328;SDS011;30039;51.462;6.892;2023-11-21T06:16:13;19.08;;;9.93;;
44328;SDS011;30039;51.462;6.892;2023-11-21T06:19:01;21.90;;;9.85;;
44328;SDS011;30039;51.462;6.892;2023-11-21T06:21:47;18.38;;;9.38;;
44328;SDS011;30039;51.462;6.892;2023-11-21T06:24:32;20.42;;;10.77;;
44328;SDS011;30039;51.462;6.892;2023-11-21T06:27:18;23.20;;;10.27;;
44328;SDS011;30039;51.462;6.892;2023-11-21T06:30:04;24.25;;;10.88;;
44328;SDS011;30039;51.462;6.892;2023-11-21T06:32:50;19.95;;;10.65;;
44328;SDS011;30039;51.462;6.892;2023-11-21T06:35:36;20.45;;;11.23;;
44328;SDS011;30039;51.462;6.892;2023-11-21T06:38:22;23.13;;;10.80;;
44328;SDS011;30039;51.462;6.892;2023-11-21T06:41:08;23.48;;;11.02;;
44328;SDS011;30039;51.462;6.892;2023-11-21T06:43:53;24.90;;;12.25;;
44328;SDS011;30039;51.462;6.892;2023-11-21T06:46:39;27.42;;;12.60;;
44328;SDS011;30039;51.462;6.892;2023-11-21T06:49:28;28.15;;;12.63;;
44328;SDS011;30039;51.462;6.892;2023-11-21T06:52:13;32.22;;;12.65;;
44328;SDS011;30039;51.462;6.892;2023-11-21T06:54:59;30.83;;;13.15;;
44328;SDS011;30039;51.462;6.892;2023-11-21T06:57:45;25.27;;;12.63;;
44328;SDS011;30039;51.462;6.892;2023-11-21T07:00:33;31.48;;;12.32;;
44328;SDS011;30039;51.462;6.892;2023-11-21T07:03:19;29.20;;;11.50;;
44328;SDS011;30039;51.462;6.892;2023-11-21T07:06:05;31.25;;;13.43;;
44328;SDS011;30039;51.462;6.892;2023-11-21T07:08:51;30.05;;;12.90;;
44328;SDS011;30039;51.462;6.892;2023-11-21T07:11:37;36.38;;;14.18;;
44328;SDS011;30039;51.462;6.892;2023-11-21T07:14:23;36.38;;;14.63;;
44328;SDS011;30039;51.462;6.892;2023-11-21T07:17:09;38.47;;;15.45;;
44328;SDS011;30039;51.462;6.892;2023-11-21T07:19:54;40.80;;;14.73;;
44328;SDS011;30039;51.462;6.892;2023-11-21T07:22:40;40.85;;;16.58;;
44328;SDS011;30039;51.462;6.892;2023-11-21T07:25:26;53.88;;;18.17;;
44328;SDS011;30039;51.462;6.892;2023-11-21T07:28:12;51.92;;;18.50;;
44328;SDS011;30039;51.462;6.892;2023-11-21T07:30:57;52.17;;;18.00;;
44328;SDS011;30039;51.462;6.892;2023-11-21T07:33:47;48.65;;;17.30;;
44328;SDS011;30039;51.462;6.892;2023-11-21T07:36:33;50.55;;;18.40;;
44328;SDS011;30039;51.462;6.892;2023-11-21T07:39:19;48.95;;;17.48;;
44328;SDS011;30039;51.462;6.892;2023-11-21T07:42:05;49.20;;;17.45;;
44328;SDS011;30039;51.462;6.892;2023-11-21T07:44:51;51.30;;;18.60;;
44328;SDS011;30039;51.462;6.892;2023-11-21T07:47:37;56.08;;;19.15;;
44328;SDS011;30039;51.462;6.892;2023-11-21T07:50:24;77.00;;;21.48;;
44328;SDS011;30039;51.462;6.892;2023-11-21T07:53:10;65.03;;;21.67;;
44328;SDS011;30039;51.462;6.892;2023-11-21T07:55:56;62.90;;;21.77;;
44328;SDS011;30039;51.462;6.892;2023-11-21T07:58:41;82.03;;;22.10;;
44328;SDS011;30039;51.462;6.892;2023-11-21T08:01:27;66.13;;;21.95;;
44328;SDS011;30039;51.462;6.892;2023-11-21T08:04:13;66.95;;;23.15;;
44328;SDS011;30039;51.462;6.892;2023-11-21T08:06:59;70.20;;;23.30;;
44328;SDS011;30039;51.462;6.892;2023-11-21T08:09:44;72.45;;;23.33;;
44328;SDS011;30039;51.462;6.892;2023-11-21T08:12:31;64.30;;;23.27;;
44328;SDS011;30039;51.462;6.892;2023-11-21T08:15:17;66.35;;;22.90;;
44328;SDS011;30039;51.462;6.892;2023-11-21T08:18:03;72.05;;;22.75;;
44328;SDS011;30039;51.462;6.892;2023-11-21T08:20:49;79.55;;;23.13;;
44328;SDS011;30039;51.462;6.892;2023-11-21T08:23:35;76.53;;;23.15;;
44328;SDS011;30039;51.462;6.892;2023-11-21T08:26:21;70.50;;;24.05;;
44328;SDS011;30039;51.462;6.892;2023-11-21T08:29:07;77.30;;;23.88;;
44328;SDS011;30039;51.462;6.892;2023-11-21T08:31:53;76.07;;;24.65;;
44328;SDS011;30039;51.462;6.892;2023-11-21T08:34:39;66.88;;;22.95;;
44328;SDS011;30039;51.462;6.892;2023-11-21T08:37:28;68.03;;;23.33;;
44328;SDS011;30039;51.462;6.892;2023-11-21T08:40:15;73.45;;;23.08;;
44328;SDS011;30039;51.462;6.892;2023-11-21T08:43:02;59.72;;;23.73;;
44328;SDS011;30039;51.462;6.892;2023-11-21T08:45:49;75.18;;;23.50;;
44328;SDS011;30039;51.462;6.892;2023-11-21T08:48:36;70.53;;;24.42;;
44328;SDS011;30039;51.462;6.892;2023-11-21T08:51:22;77.25;;;23.55;;
44328;SDS011;30039;51.462;6.892;2023-11-21T08:54:07;83.57;;;26.20;;
44328;SDS011;30039;51.462;6.892;2023-11-21T08:56:54;71.10;;;25.15;;
44328;SDS011;30039;51.462;6.892;2023-11-21T08:59:40;77.93;;;25.67;;
44328;SDS011;30039;51.462;6.892;2023-11-21T09:02:25;76.05;;;25.48;;
44328;SDS011;30039;51.462;6.892;2023-11-21T09:05:12;73.38;;;25.63;;
44328;SDS011;30039;51.462;6.892;2023-11-21T09:07:58;83.60;;;26.60;;
44328;SDS011;30039;51.462;6.892;2023-11-21T09:10:44;80.30;;;26.67;;
44328;SDS011;30039;51.462;6.892;2023-11-21T09:13:32;87.55;;;27.65;;
44328;SDS011;30039;51.462;6.892;2023-11-21T09:16:18;78.72;;;27.38;;
44328;SDS011;30039;51.462;6.892;2023-11-21T09:19:03;88.70;;;27.23;;
44328;SDS011;30039;51.462;6.892;2023-11-21T09:21:50;93.47;;;28.20;;
44328;SDS011;30039;51.462;6.892;2023-11-21T09:24:36;85.70;;;27.50;;
44328;SDS011;30039;51.462;6.892;2023-11-21T09:27:23;87.53;;;27.83;;
44328;SDS011;30039;51.462;6.892;2023-11-21T09:30:08;87.82;;;28.77;;
44328;SDS011;30039;51.462;6.892;2023-11-21T09:32:55;89.43;;;27.33;;
44328;SDS011;30039;51.462;6.892;2023-11-21T09:35:41;89.50;;;26.92;;
44328;SDS011;30039;51.462;6.892;2023-11-21T09:38:26;86.95;;;27.83;;
44328;SDS011;30039;51.462;6.892;2023-11-21T09:41:16;84.05;;;27.65;;
44328;SDS011;30039;51.462;6.892;2023-11-21T09:44:05;92.32;;;28.92;;
44328;SDS011;30039;51.462;6.892;2023-11-21T09:46:56;84.18;;;27.38;;
44328;SDS011;30039;51.462;6.892;2023-11-21T09:49:46;88.15;;;26.92;;
44328;SDS011;30039;51.462;6.892;2023-11-21T09:52:32;84.20;;;26.80;;
44328;SDS011;30039;51.462;6.892;2023-11-21T09:55:24;84.03;;;27.08;;
44328;SDS011;30039;51.462;6.892;2023-11-21T09:58:13;76.40;;;26.05;;
44328;SDS011;30039;51.462;6.892;2023-11-21T10:00:58;78.22;;;26.73;;
44328;SDS011;30039;51.462;6.892;2023-11-21T10:03:44;77.57;;;26.23;;
44328;SDS011;30039;51.462;6.892;2023-11-21T10:06:30;79.13;;;27.38;;
44328;SDS011;30039;51.462;6.892;2023-11-21T10:09:17;77.90;;;27.25;;
44328;SDS011;30039;51.462;6.892;2023-11-21T10:12:05;76.40;;;26.05;;
44328;SDS011;30039;51.462;6.892;2023-11-21T10:14:52;85.53;;;24.88;;
44328;SDS011;30039;51.462;6.892;2023-11-21T10:17:39;65.78;;;25.02;;
44328;SDS011;30039;51.462;6.892;2023-11-21T10:20:28;85.43;;;27.30;;
44328;SDS011;30039;51.462;6.892;2023-11-21T10:23:20;74.72;;;25.58;;
44328;SDS011;30039;51.462;6.892;2023-11-21T10:26:07;79.18;;;25.95;;
44328;SDS011;30039;51.462;6.892;2023-11-21T10:28:59;73.68;;;25.13;;
44328;SDS011;30039;51.462;6.892;2023-11-21T10:31:45;78.88;;;26.23;;
44328;SDS011;30039;51.462;6.892;2023-11-21T10:34:34;79.53;;;24.92;;
44328;SDS011;30039;51.462;6.892;2023-11-21T10:37:19;79.75;;;24.92;;
44328;SDS011;30039;51.462;6.892;2023-11-21T10:40:09;76.97;;;25.33;;
44328;SDS011;30039;51.462;6.892;2023-11-21T10:43:05;75.15;;;24.98;;
44328;SDS011;30039;51.462;6.892;2023-11-21T10:45:51;71.85;;;23.90;;
44328;SDS011;30039;51.462;6.892;2023-11-21T10:48:37;62.47;;;21.30;;
44328;SDS011;30039;51.462;6.892;2023-11-21T10:51:23;58.28;;;21.83;;
44328;SDS011;30039;51.462;6.892;2023-11-21T10:54:12;58.17;;;19.83;;
44328;SDS011;30039;51.462;6.892;2023-11-21T10:57:00;54.03;;;19.58;;
44328;SDS011;30039;51.462;6.892;2023-11-21T10:59:46;52.65;;;19.10;;
44328;SDS011;30039;51.462;6.892;2023-11-21T11:02:36;48.38;;;19.02;;
44328;SDS011;30039;51.462;6.892;2023-11-21T11:05:22;51.85;;;18.25;;
44328;SDS011;30039;51.462;6.892;2023-11-21T11:08:09;51.13;;;19.35;;
44328;SDS011;30039;51.462;6.892;2023-11-21T11:10:57;47.78;;;18.90;;
44328;SDS011;30039;51.462;6.892;2023-11-21T11:13:44;46.17;;;18.77;;
44328;SDS011;30039;51.462;6.892;2023-11-21T11:16:32;49.58;;;19.27;;
44328;SDS011;30039;51.462;6.892;2023-11-21T11:19:18;40.25;;;18.27;;
44328;SDS011;30039;51.462;6.892;2023-11-21T11:22:08;47.22;;;19.35;;
44328;SDS011;30039;51.462;6.892;2023-11-21T11:31:04;38.08;;;15.55;;
44328;SDS011;30039;51.462;6.892;2023-11-21T11:33:58;32.83;;;14.77;;
44328;SDS011;30039;51.462;6.892;2023-11-21T11:36:48;32.63;;;14.27;;
44328;SDS011;30039;51.462;6.892;2023-11-21T11:39:38;34.67;;;13.77;;
44328;SDS011;30039;51.462;6.892;2023-11-21T11:42:24;30.02;;;13.57;;
44328;SDS011;30039;51.462;6.892;2023-11-21T11:45:19;28.10;;;12.30;;
44328;SDS011;30039;51.462;6.892;2023-11-21T11:48:05;26.05;;;12.13;;
44328;SDS011;30039;51.462;6.892;2023-11-21T11:51:01;31.80;;;12.57;;
44328;SDS011;30039;51.462;6.892;2023-11-21T11:53:48;23.95;;;11.73;;
44328;SDS011;30039;51.462;6.892;2023-11-21T11:56:34;26.67;;;11.13;;
44328;SDS011;30039;51.462;6.892;2023-11-21T11:59:21;28.95;;;11.30;;
44328;SDS011;30039;51.462;6.892;2023-11-21T12:02:07;25.67;;;11.05;;
44328;SDS011;30039;51.462;6.892;2023-11-21T12:04:56;26.30;;;11.43;;
44328;SDS011;30039;51.462;6.892;2023-11-21T12:07:43;29.02;;;11.82;;
44328;SDS011;30039;51.462;6.892;2023-11-21T12:10:30;30.00;;;12.52;;
44328;SDS011;30039;51.462;6.892;2023-11-21T12:13:16;28.38;;;13.05;;
44328;SDS011;30039;51.462;6.892;2023-11-21T12:16:01;28.27;;;12.65;;
44328;SDS011;30039;51.462;6.892;2023-11-21T12:18:47;33.08;;;12.88;;
44328;SDS011;30039;51.462;6.892;2023-11-21T12:21:33;35.60;;;14.20;;
44328;SDS011;30039;51.462;6.892;2023-11-21T12:24:19;29.83;;;13.88;;
44328;SDS011;30039;51.462;6.892;2023-11-21T12:27:05;31.90;;;13.73;;
44328;SDS011;30039;51.462;6.892;2023-11-21T12:29:50;31.90;;;14.45;;
44328;SDS011;30039;51.462;6.892;2023-11-21T12:32:36;34.30;;;14.20;;
44328;SDS011;30039;51.462;6.892;2023-11-21T12:35:23;21.67;;;11.00;;
44328;SDS011;30039;51.462;6.892;2023-11-21T12:38:09;28.60;;;11.68;;
44328;SDS011;30039;51.462;6.892;2023-11-21T12:40:55;54.65;;;13.35;;
44328;SDS011;30039;51.462;6.892;2023-11-21T12:43:43;36.85;;;12.13;;
44328;SDS011;30039;51.462;6.892;2023-11-21T12:46:29;23.80;;;11.02;;
44328;SDS011;30039;51.462;6.892;2023-11-21T12:49:15;58.65;;;14.02;;
44328;SDS011;30039;51.462;6.892;2023-11-21T12:52:04;55.25;;;16.58;;
44328;SDS011;30039;51.462;6.892;2023-11-21T12:54:49;36.42;;;12.23;;
44328;SDS011;30039;51.462;6.892;2023-11-21T12:57:35;27.98;;;11.82;;
44328;SDS011;30039;51.462;6.892;2023-11-21T13:00:28;24.25;;;10.25;;
44328;SDS011;30039;51.462;6.892;2023-11-21T13:03:16;32.75;;;12.10;;
44328;SDS011;30039;51.462;6.892;2023-11-21T13:06:03;24.45;;;11.43;;
44328;SDS011;30039;51.462;6.892;2023-11-21T13:08:50;27.98;;;11.55;;
44328;SDS011;30039;51.462;6.892;2023-11-21T13:11:36;24.38;;;11.15;;
44328;SDS011;30039;51.462;6.892;2023-11-21T13:14:28;26.65;;;11.38;;
44328;SDS011;30039;51.462;6.892;2023-11-21T13:17:14;21.60;;;9.60;;
44328;SDS011;30039;51.462;6.892;2023-11-21T13:19:59;21.75;;;10.45;;
44328;SDS011;30039;51.462;6.892;2023-11-21T13:22:52;20.45;;;9.82;;
44328;SDS011;30039;51.462;6.892;2023-11-21T13:25:44;18.38;;;9.10;;
44328;SDS011;30039;51.462;6.892;2023-11-21T13:28:34;14.77;;;8.15;;
44328;SDS011;30039;51.462;6.892;2023-11-21T13:31:20;13.32;;;8.23;;
44328;SDS011;30039;51.462;6.892;2023-11-21T13:34:08;13.52;;;7.50;;
44328;SDS011;30039;51.462;6.892;2023-11-21T13:36:54;20.30;;;7.88;;
44328;SDS011;30039;51.462;6.892;2023-11-21T13:39:44;14.05;;;7.25;;
44328;SDS011;30039;51.462;6.892;2023-11-21T13:42:31;39.53;;;9.88;;
44328;SDS011;30039;51.462;6.892;2023-11-21T13:45:17;36.92;;;9.38;;
44328;SDS011;30039;51.462;6.892;2023-11-21T13:48:05;27.38;;;8.82;;
44328;SDS011;30039;51.462;6.892;2023-11-21T13:50:55;22.27;;;8.98;;
44328;SDS011;30039;51.462;6.892;2023-11-21T13:53:44;15.15;;;7.68;;
44328;SDS011;30039;51.462;6.892;2023-11-21T13:56:31;11.70;;;6.93;;
44328;SDS011;30039;51.462;6.892;2023-11-21T13:59:17;14.07;;;7.30;;
44328;SDS011;30039;51.462;6.892;2023-11-21T14:02:11;20.33;;;9.00;;
44328;SDS011;30039;51.462;6.892;2023-11-21T14:05:03;17.33;;;7.97;;
44328;SDS011;30039;51.462;6.892;2023-11-21T14:07:55;20.63;;;9.05;;
44328;SDS011;30039;51.462;6.892;2023-11-21T14:10:41;14.90;;;7.72;;
44328;SDS011;30039;51.462;6.892;2023-11-21T14:13:34;16.27;;;7.22;;
44328;SDS011;30039;51.462;6.892;2023-11-21T14:16:20;14.10;;;7.75;;
44328;SDS011;30039;51.462;6.892;2023-11-21T14:19:07;16.08;;;8.15;;
44328;SDS011;30039;51.462;6.892;2023-11-21T14:22:01;16.67;;;7.95;;
44328;SDS011;30039;51.462;6.892;2023-11-21T14:24:46;13.30;;;7.40;;
44328;SDS011;30039;51.462;6.892;2023-11-21T14:27:32;15.38;;;8.38;;
44328;SDS011;30039;51.462;6.892;2023-11-21T14:30:18;15.65;;;7.80;;
44328;SDS011;30039;51.462;6.892;2023-11-21T14:33:07;15.93;;;7.65;;
44328;SDS011;30039;51.462;6.892;2023-11-21T14:35:55;16.80;;;8.50;;
44328;SDS011;30039;51.462;6.892;2023-11-21T14:38:40;15.18;;;8.02;;
44328;SDS011;30039;51.462;6.892;2023-11-21T14:41:26;14.82;;;8.25;;
44328;SDS011;30039;51.462;6.892;2023-11-21T14:44:14;14.43;;;8.40;;
44328;SDS011;30039;51.462;6.892;2023-11-21T14:47:00;12.35;;;7.43;;
44328;SDS011;30039;51.462;6.892;2023-11-21T14:49:51;14.68;;;7.55;;
44328;SDS011;30039;51.462;6.892;2023-11-21T14:52:41;13.52;;;7.85;;
44328;SDS011;30039;51.462;6.892;2023-11-21T14:55:41;16.80;;;8.25;;
44328;SDS011;30039;51.462;6.892;2023-11-21T14:58:40;13.13;;;7.75;;
44328;SDS011;30039;51.462;6.892;2023-11-21T15:01:26;13.35;;;7.70;;
44328;SDS011;30039;51.462;6.892;2023-11-21T15:04:43;14.18;;;8.07;;
44328;SDS011;30039;51.462;6.892;2023-11-21T15:07:29;15.38;;;8.23;;
44328;SDS011;30039;51.462;6.892;2023-11-21T15:10:15;14.52;;;8.07;;
44328;SDS011;30039;51.462;6.892;2023-11-21T15:13:00;16.25;;;8.10;;
44328;SDS011;30039;51.462;6.892;2023-11-21T15:15:48;14.52;;;7.85;;
44328;SDS011;30039;51.462;6.892;2023-11-21T15:18:33;11.57;;;6.72;;
44328;SDS011;30039;51.462;6.892;2023-11-21T15:21:21;11.35;;;6.75;;
44328;SDS011;30039;51.462;6.892;2023-11-21T15:24:09;13.02;;;6.75;;
44328;SDS011;30039;51.462;6.892;2023-11-21T15:26:56;11.70;;;7.07;;
44328;SDS011;30039;51.462;6.892;2023-11-21T15:29:42;12.27;;;6.57;;
44328;SDS011;30039;51.462;6.892;2023-11-21T15:32:28;11.85;;;6.68;;
44328;SDS011;30039;51.462;6.892;2023-11-21T15:35:13;10.35;;;6.18;;
44328;SDS011;30039;51.462;6.892;2023-11-21T15:38:00;11.27;;;6.32;;
44328;SDS011;30039;51.462;6.892;2023-11-21T15:40:45;12.45;;;6.30;;
44328;SDS011;30039;51.462;6.892;2023-11-21T15:43:31;8.60;;;4.97;;
44328;SDS011;30039;51.462;6.892;2023-11-21T15:46:17;11.55;;;5.72;;
44328;SDS011;30039;51.462;6.892;2023-11-21T15:49:03;8.77;;;5.43;;
44328;SDS011;30039;51.462;6.892;2023-11-21T15:51:57;7.63;;;4.53;;
44328;SDS011;30039;51.462;6.892;2023-11-21T15:54:44;10.05;;;5.30;;
44328;SDS011;30039;51.462;6.892;2023-11-21T15:57:31;8.07;;;4.78;;
44328;SDS011;30039;51.462;6.892;2023-11-21T16:00:17;8.30;;;4.93;;
44328;SDS011;30039;51.462;6.892;2023-11-21T16:03:05;7.45;;;4.35;;
44328;SDS011;30039;51.462;6.892;2023-11-21T16:05:51;8.80;;;5.32;;
44328;SDS011;30039;51.462;6.892;2023-11-21T16:08:36;9.88;;;4.95;;
44328;SDS011;30039;51.462;6.892;2023-11-21T16:11:22;10.82;;;5.55;;
44328;SDS011;30039;51.462;6.892;2023-11-21T16:14:08;9.30;;;5.43;;
44328;SDS011;30039;51.462;6.892;2023-11-21T16:16:54;8.68;;;5.88;;
44328;SDS011;30039;51.462;6.892;2023-11-21T16:19:40;9.82;;;5.75;;
44328;SDS011;30039;51.462;6.892;2023-11-21T16:22:27;8.43;;;5.75;;
44328;SDS011;30039;51.462;6.892;2023-11-21T16:25:13;9.40;;;6.22;;
44328;SDS011;30039;51.462;6.892;2023-11-21T16:27:59;9.05;;;5.85;;
44328;SDS011;30039;51.462;6.892;2023-11-21T16:30:49;11.93;;;6.03;;
44328;SDS011;30039;51.462;6.892;2023-11-21T16:33:36;9.18;;;5.75;;